createdAt,value
2016-12-06T00:00:08.352Z,3.53
2016-12-06T00:01:18.684Z,3.54
2016-12-06T00:02:29.027Z,3.51
2016-12-06T00:03:39.041Z,3.56
2016-12-06T00:04:49.395Z,3.51
2016-12-06T00:05:59.115Z,3.49
2016-12-06T00:07:09.156Z,3.54
2016-12-06T00:08:19.478Z,3.53
2016-12-06T00:09:29.834Z,3.43
2016-12-06T00:10:39.851Z,3.43
2016-12-06T00:11:50.345Z,3.54
2016-12-06T00:13:00.046Z,3.54
2016-12-06T00:14:10.307Z,3.54
2016-12-06T00:15:20.264Z,3.53
2016-12-06T00:16:30.548Z,3.53
2016-12-06T00:17:40.523Z,3.57
2016-12-06T00:18:50.792Z,3.57
2016-12-06T00:20:00.444Z,3.53
2016-12-06T00:21:10.450Z,3.57
2016-12-06T00:22:20.718Z,3.54
2016-12-06T00:23:30.984Z,3.51
2016-12-06T00:24:40.966Z,3.53
2016-12-06T00:25:51.236Z,3.56
2016-12-06T00:27:01.203Z,3.6
2016-12-06T00:28:11.491Z,3.57
2016-12-06T00:29:21.988Z,3.6
2016-12-06T00:30:32.249Z,3.54
2016-12-06T00:31:42.532Z,3.49
2016-12-06T00:32:52.817Z,3.6
2016-12-06T00:34:03.079Z,3.53
2016-12-06T00:35:13.083Z,3.58
2016-12-06T00:36:23.348Z,3.56
2016-12-06T00:37:33.024Z,3.48
2016-12-06T00:38:43.001Z,3.57
2016-12-06T00:39:53.275Z,3.66
2016-12-06T00:41:03.226Z,3.48
2016-12-06T00:42:13.186Z,3.49
2016-12-06T00:43:23.452Z,3.64
2016-12-06T00:44:32.793Z,3.64
2016-12-06T00:45:42.444Z,3.67
2016-12-06T00:46:52.420Z,3.64
2016-12-06T00:48:02.691Z,3.67
2016-12-06T00:49:12.988Z,3.71
2016-12-06T00:50:22.940Z,3.66
2016-12-06T00:51:33.217Z,3.78
2016-12-06T00:52:43.182Z,3.75
2016-12-06T00:53:53.172Z,3.67
2016-12-06T00:55:02.847Z,3.61
2016-12-06T00:56:13.132Z,3.66
2016-12-06T00:57:23.098Z,3.72
2016-12-06T00:58:32.745Z,3.74
2016-12-06T00:59:43.018Z,3.72
2016-12-06T01:00:53.028Z,3.67
2016-12-06T01:02:03.283Z,3.63
2016-12-06T01:03:13.286Z,3.53
2016-12-06T01:04:22.940Z,3.61
2016-12-06T01:05:32.591Z,3.74
2016-12-06T01:06:42.619Z,3.66
2016-12-06T01:07:52.939Z,3.64
2016-12-06T01:09:02.969Z,3.6
2016-12-06T01:10:14.965Z,3.64
2016-12-06T01:11:25.045Z,3.63
2016-12-06T01:12:34.752Z,3.61
2016-12-06T01:13:45.087Z,3.58
2016-12-06T01:14:55.109Z,3.61
2016-12-06T01:16:05.141Z,3.54
2016-12-06T01:17:15.163Z,3.49
2016-12-06T01:18:25.513Z,3.51
2016-12-06T01:19:35.844Z,3.51
2016-12-06T01:20:45.871Z,3.63
2016-12-06T01:21:56.196Z,3.53
2016-12-06T01:23:06.252Z,3.57
2016-12-06T01:24:16.265Z,3.6
2016-12-06T01:25:26.289Z,3.53
2016-12-06T01:26:36.324Z,3.56
2016-12-06T01:27:46.644Z,3.51
2016-12-06T01:28:56.679Z,3.56
2016-12-06T01:30:07.006Z,3.53
2016-12-06T01:31:17.028Z,3.53
2016-12-06T01:32:27.376Z,3.54
2016-12-06T01:33:37.696Z,3.49
2016-12-06T01:34:47.705Z,3.46
2016-12-06T01:35:57.739Z,3.39
2016-12-06T01:37:07.760Z,3.27
2016-12-06T01:38:17.779Z,3.34
2016-12-06T01:39:27.190Z,3.2
2016-12-06T01:40:37.226Z,3.16
2016-12-06T01:41:46.621Z,3.11
2016-12-06T01:42:56.633Z,3.11
2016-12-06T01:44:06.653Z,3.08
2016-12-06T01:45:16.996Z,3.01
2016-12-06T01:46:27.005Z,3.01
2016-12-06T01:47:37.359Z,2.98
2016-12-06T01:48:47.649Z,3.03
2016-12-06T01:49:57.920Z,2.99
2016-12-06T01:51:08.218Z,2.99
2016-12-06T01:52:17.961Z,2.95
2016-12-06T01:53:28.296Z,2.98
2016-12-06T01:54:38.322Z,2.93
2016-12-06T01:55:48.347Z,2.9
2016-12-06T01:56:58.375Z,2.85
2016-12-06T01:58:08.084Z,2.9
2016-12-06T01:59:18.043Z,2.85
2016-12-06T02:00:28.341Z,2.77
2016-12-06T02:01:38.684Z,2.83
2016-12-06T02:02:48.724Z,2.84
2016-12-06T02:03:59.050Z,2.76
2016-12-06T02:05:09.393Z,2.7
2016-12-06T02:06:19.969Z,2.77
2016-12-06T02:07:30.005Z,2.69
2016-12-06T02:08:40.344Z,2.72
2016-12-06T02:09:50.688Z,2.72
2016-12-06T02:11:01.007Z,2.6
2016-12-06T02:12:11.346Z,2.76
2016-12-06T02:13:21.668Z,2.6
2016-12-06T02:14:31.682Z,2.6
2016-12-06T02:15:41.075Z,2.67
2016-12-06T02:16:51.108Z,2.6
2016-12-06T02:18:01.462Z,2.58
2016-12-06T02:19:11.799Z,2.59
2016-12-06T02:20:22.143Z,2.65
2016-12-06T02:21:32.159Z,2.59
2016-12-06T02:22:42.187Z,2.48
2016-12-06T02:23:52.514Z,2.51
2016-12-06T02:25:02.566Z,2.45
2016-12-06T02:26:11.967Z,2.48
2016-12-06T02:27:22.009Z,2.51
2016-12-06T02:28:32.344Z,2.45
2016-12-06T02:29:42.040Z,2.42
2016-12-06T02:30:52.074Z,2.4
2016-12-06T02:32:02.087Z,2.41
2016-12-06T02:33:12.098Z,2.44
2016-12-06T02:34:22.115Z,2.44
2016-12-06T02:35:32.191Z,2.44
2016-12-06T02:36:42.518Z,2.47
2016-12-06T02:37:52.540Z,2.44
2016-12-06T02:39:02.248Z,2.44
2016-12-06T02:40:11.947Z,2.4
2016-12-06T02:41:22.304Z,2.4
2016-12-06T02:42:32.632Z,2.41
2016-12-06T02:43:42.637Z,2.44
2016-12-06T02:44:52.027Z,2.44
2016-12-06T02:46:02.366Z,2.49
2016-12-06T02:47:12.705Z,2.4
2016-12-06T02:48:22.707Z,2.45
2016-12-06T02:49:32.731Z,2.42
2016-12-06T02:50:43.047Z,2.41
2016-12-06T02:51:53.382Z,2.41
2016-12-06T02:53:03.094Z,2.45
2016-12-06T02:54:13.416Z,2.48
2016-12-06T02:55:23.457Z,2.49
2016-12-06T02:56:33.479Z,2.47
2016-12-06T02:57:43.503Z,2.38
2016-12-06T02:58:53.831Z,2.49
2016-12-06T03:00:03.536Z,2.48
2016-12-06T03:01:13.546Z,2.45
2016-12-06T03:33:05.025Z,-0.99
2016-12-06T03:34:14.733Z,-1.06
2016-12-06T03:35:24.757Z,-0.92
2016-12-06T03:36:34.763Z,-0.91
2016-12-06T03:37:44.482Z,-0.74
2016-12-06T03:38:54.810Z,-0.74
2016-12-06T03:40:05.155Z,-0.62
2016-12-06T03:41:14.888Z,-0.38
2016-12-06T03:42:24.589Z,-0.25
2016-12-06T03:43:34.608Z,-0.09
2016-12-06T03:44:44.312Z,0.08
2016-12-06T03:45:54.326Z,0.26
2016-12-06T03:47:04.677Z,0.39
2016-12-06T03:48:14.744Z,0.61
2016-12-06T03:49:25.079Z,0.67
2016-12-06T03:50:35.425Z,0.86
2016-12-06T03:51:45.784Z,0.97
2016-12-06T03:52:56.131Z,1.14
2016-12-06T03:54:05.848Z,1.15
2016-12-06T03:55:15.566Z,1.18
2016-12-06T03:56:25.588Z,1.32
2016-12-06T03:57:35.640Z,1.44
2016-12-06T03:58:45.977Z,1.53
2016-12-06T03:59:55.979Z,1.6
2016-12-06T04:01:06.023Z,1.57
2016-12-06T04:02:15.724Z,1.64
2016-12-06T04:03:25.747Z,1.72
2016-12-06T04:04:35.750Z,1.72
2016-12-06T04:05:45.461Z,1.72
2016-12-06T04:06:55.796Z,1.72
2016-12-06T04:08:06.143Z,1.78
2016-12-06T04:09:16.190Z,1.87
2016-12-06T04:10:26.201Z,1.79
2016-12-06T04:11:36.541Z,1.82
2016-12-06T04:12:46.557Z,1.89
2016-12-06T04:13:56.570Z,1.9
2016-12-06T04:15:06.660Z,1.87
2016-12-06T04:16:16.686Z,1.97
2016-12-06T04:17:26.407Z,1.92
2016-12-06T04:18:36.449Z,2.01
2016-12-06T04:19:46.469Z,2.04
2016-12-06T04:20:56.505Z,2.02
2016-12-06T04:22:06.829Z,2.01
2016-12-06T04:23:16.845Z,2.01
2016-12-06T04:24:26.846Z,2.01
2016-12-06T04:25:37.165Z,2.05
2016-12-06T04:26:47.499Z,2.09
2016-12-06T04:27:57.208Z,2.09
2016-12-06T04:29:07.224Z,2.04
2016-12-06T04:30:17.239Z,2.16
2016-12-06T04:31:26.974Z,2.02
2016-12-06T04:32:36.995Z,2.2
2016-12-06T04:33:47.013Z,2.2
2016-12-06T04:34:57.351Z,2.16
2016-12-06T04:36:07.368Z,2.16
2016-12-06T04:37:17.084Z,2.2
2016-12-06T04:38:27.119Z,2.2
2016-12-06T04:39:37.444Z,2.15
2016-12-06T04:40:47.783Z,2.12
2016-12-06T04:41:58.114Z,2.18
2016-12-06T04:43:08.477Z,2.22
2016-12-06T04:44:18.190Z,2.26
2016-12-06T04:45:28.211Z,2.24
2016-12-06T04:46:38.221Z,2.23
2016-12-06T04:47:48.541Z,2.31
2016-12-06T04:48:58.803Z,2.29
2016-12-06T04:50:09.123Z,2.38
2016-12-06T04:51:18.834Z,2.34
2016-12-06T04:52:28.848Z,2.42
2016-12-06T04:53:38.882Z,2.34
2016-12-06T04:54:48.934Z,2.48
2016-12-06T04:55:58.951Z,2.44
2016-12-06T04:57:09.304Z,2.44
2016-12-06T04:58:19.655Z,2.48
2016-12-06T04:59:29.976Z,2.54
2016-12-06T05:00:39.693Z,2.6
2016-12-06T05:01:49.401Z,2.67
2016-12-06T05:02:59.424Z,2.59
2016-12-06T05:04:09.452Z,2.7
2016-12-06T05:05:19.794Z,2.69
2016-12-06T05:06:29.833Z,2.77
2016-12-06T05:07:40.182Z,2.77
2016-12-06T05:08:50.181Z,2.7
2016-12-06T05:09:59.892Z,2.81
2016-12-06T05:11:10.246Z,2.77
2016-12-06T05:12:20.287Z,2.88
2016-12-06T05:13:30.306Z,2.84
2016-12-06T05:14:40.348Z,2.87
2016-12-06T05:15:50.363Z,2.93
2016-12-06T05:17:00.411Z,2.99
2016-12-06T05:18:10.144Z,3.11
2016-12-06T05:19:20.722Z,3.16
2016-12-06T05:20:30.432Z,3.13
2016-12-06T05:21:40.778Z,3.09
2016-12-06T05:22:50.799Z,3.09
2016-12-06T05:24:01.114Z,3.13
2016-12-06T05:25:11.135Z,3.16
2016-12-06T05:26:21.453Z,3.2
2016-12-06T05:27:31.468Z,3.16
2016-12-06T05:28:41.794Z,3.2
2016-12-06T05:29:52.140Z,3.19
2016-12-06T05:31:02.479Z,3.17
2016-12-06T05:32:12.815Z,3.09
2016-12-06T05:33:22.909Z,3.13
2016-12-06T05:34:33.239Z,3.14
2016-12-06T05:35:42.953Z,3.14
2016-12-06T05:36:53.270Z,3.13
2016-12-06T05:38:03.592Z,3.14
2016-12-06T05:39:13.629Z,3.26
2016-12-06T05:40:23.950Z,3.26
2016-12-06T05:41:34.304Z,3.23
2016-12-06T05:42:43.994Z,3.23
2016-12-06T05:43:54.008Z,3.2
2016-12-06T05:45:04.042Z,3.27
2016-12-06T05:46:14.077Z,3.17
2016-12-06T05:47:23.810Z,3.24
2016-12-06T05:48:34.139Z,3.19
2016-12-06T05:49:44.458Z,3.34
2016-12-06T05:50:54.493Z,3.32
2016-12-06T05:52:04.507Z,3.24
2016-12-06T05:53:14.208Z,3.29
2016-12-06T05:54:23.920Z,3.34
2016-12-06T05:55:33.932Z,3.34
2016-12-06T05:56:43.967Z,3.32
2016-12-06T05:57:54.301Z,3.35
2016-12-06T05:59:04.318Z,3.34
2016-12-06T06:00:14.344Z,3.37
2016-12-06T06:01:24.668Z,3.39
2016-12-06T06:02:34.381Z,3.42
2016-12-06T06:03:44.741Z,3.46
2016-12-06T06:04:55.080Z,3.43
2016-12-06T06:06:05.437Z,3.42
2016-12-06T06:07:15.466Z,3.46
2016-12-06T06:08:25.806Z,3.46
2016-12-06T06:09:36.167Z,3.54
2016-12-06T06:10:46.192Z,3.51
2016-12-06T06:11:56.213Z,3.4
2016-12-06T06:13:06.229Z,3.46
2016-12-06T06:14:16.257Z,3.39
2016-12-06T06:15:26.309Z,3.37
2016-12-06T06:16:36.642Z,3.39
2016-12-06T06:17:46.395Z,3.32
2016-12-06T06:18:56.737Z,3.32
2016-12-06T06:20:07.109Z,3.32
2016-12-06T06:21:17.125Z,3.32
2016-12-06T06:22:26.520Z,3.32
2016-12-06T06:23:36.854Z,3.34
2016-12-06T06:24:46.874Z,3.32
2016-12-06T06:25:57.215Z,3.35
2016-12-06T06:27:07.265Z,3.34
2016-12-06T06:28:17.645Z,3.27
2016-12-06T06:29:28.001Z,3.45
2016-12-06T06:30:38.344Z,3.37
2016-12-06T06:31:48.059Z,3.32
2016-12-06T06:32:58.085Z,3.46
2016-12-06T06:34:08.412Z,3.45
2016-12-06T06:35:18.743Z,3.4
2016-12-06T06:36:28.756Z,3.45
2016-12-06T06:37:39.086Z,3.51
2016-12-06T06:38:49.666Z,3.58
2016-12-06T06:39:59.993Z,3.49
2016-12-06T06:41:10.020Z,3.53
2016-12-06T06:42:19.405Z,3.51
2016-12-06T06:43:29.737Z,3.51
2016-12-06T06:44:39.750Z,3.49
2016-12-06T06:45:49.460Z,3.43
2016-12-06T06:46:59.811Z,3.39
2016-12-06T06:48:09.871Z,3.45
2016-12-06T06:49:19.904Z,3.46
2016-12-06T06:50:29.925Z,3.42
2016-12-06T06:51:39.951Z,3.34
2016-12-06T06:52:49.666Z,3.34
2016-12-06T06:53:59.691Z,3.39
2016-12-06T06:55:09.712Z,3.32
2016-12-06T06:56:19.409Z,3.27
2016-12-06T06:57:29.429Z,3.17
2016-12-06T06:58:39.452Z,3.24
2016-12-06T06:59:49.171Z,3.13
2016-12-06T07:00:58.886Z,3.19
2016-12-06T07:02:08.950Z,3.17
2016-12-06T07:03:18.975Z,3.14
2016-12-06T07:04:29.320Z,3.11
2016-12-06T07:05:39.654Z,3.16
2016-12-06T07:06:50.006Z,3.19
2016-12-06T07:08:00.377Z,3.13
2016-12-06T07:09:10.074Z,3.19
2016-12-06T07:10:20.434Z,3.27
2016-12-06T07:11:30.773Z,3.32
2016-12-06T07:12:40.465Z,3.32
2016-12-06T07:13:50.793Z,3.37
2016-12-06T07:15:01.126Z,3.43
2016-12-06T07:16:11.187Z,3.42
2016-12-06T07:17:21.199Z,3.48
2016-12-06T07:18:31.267Z,3.51
2016-12-06T07:19:40.975Z,3.48
2016-12-06T07:20:50.688Z,3.64
2016-12-06T07:22:01.012Z,3.69
2016-12-06T07:23:10.736Z,3.64
2016-12-06T07:24:20.751Z,3.76
2016-12-06T07:25:30.756Z,3.72
2016-12-06T07:26:40.454Z,3.67
2016-12-06T07:27:50.800Z,3.72
2016-12-06T07:29:01.142Z,3.69
2016-12-06T07:30:11.175Z,3.81
2016-12-06T07:31:21.506Z,3.75
2016-12-06T07:32:31.851Z,3.79
2016-12-06T07:33:42.255Z,3.82
2016-12-06T07:34:52.610Z,3.75
2016-12-06T07:36:02.322Z,3.75
2016-12-06T07:37:12.376Z,3.75
2016-12-06T07:38:22.090Z,3.69
2016-12-06T07:39:31.813Z,3.74
2016-12-06T07:40:42.067Z,3.64
2016-12-06T07:41:52.092Z,3.63
2016-12-06T07:43:02.424Z,3.71
2016-12-06T07:44:12.108Z,3.81
2016-12-06T07:45:21.560Z,3.76
2016-12-06T07:46:31.907Z,3.84
2016-12-06T07:47:42.224Z,3.93
2016-12-06T07:48:52.250Z,3.93
2016-12-06T07:50:01.977Z,3.93
2016-12-06T07:51:12.319Z,3.86
2016-12-06T07:52:22.341Z,3.86
2016-12-06T07:53:32.387Z,3.81
2016-12-06T07:54:42.406Z,3.86
2016-12-06T07:55:52.755Z,3.66
2016-12-06T07:57:02.774Z,3.72
2016-12-06T07:58:12.217Z,3.67
2016-12-06T07:59:22.547Z,3.63
2016-12-06T08:00:32.580Z,3.67
2016-12-06T08:01:42.599Z,3.63
2016-12-06T08:02:52.303Z,3.48
2016-12-06T08:04:02.357Z,3.49
2016-12-06T08:05:12.417Z,3.51
2016-12-06T08:06:22.744Z,3.53
2016-12-06T08:07:32.765Z,3.53
2016-12-06T08:08:42.785Z,3.51
2016-12-06T08:09:53.128Z,3.53
2016-12-06T08:11:03.458Z,3.39
2016-12-06T08:12:13.796Z,3.51
2016-12-06T08:13:24.184Z,3.45
2016-12-06T08:14:33.906Z,3.51
2016-12-06T08:15:44.237Z,3.49
2016-12-06T08:16:53.957Z,3.4
2016-12-06T08:18:04.298Z,3.56
2016-12-06T08:19:14.340Z,3.56
2016-12-06T08:20:24.681Z,3.49
2016-12-06T08:21:34.698Z,3.51
2016-12-06T08:22:44.725Z,3.57
2016-12-06T08:23:54.765Z,3.57
2016-12-06T08:25:04.778Z,3.61
2016-12-06T08:26:14.520Z,3.76
2016-12-06T08:27:24.551Z,3.89
2016-12-06T08:28:34.882Z,3.92
2016-12-06T08:29:44.902Z,4
2016-12-06T08:30:54.983Z,4.04
2016-12-06T08:32:05.335Z,4
2016-12-06T08:33:15.687Z,3.93
2016-12-06T08:34:25.733Z,4
2016-12-06T08:35:36.078Z,4.04
2016-12-06T08:36:46.455Z,4.1
2016-12-06T08:37:56.807Z,4.08
2016-12-06T08:39:06.505Z,4.08
2016-12-06T08:40:16.848Z,4.1
2016-12-06T08:41:27.167Z,4.11
2016-12-06T08:42:37.493Z,4.11
2016-12-06T08:43:47.830Z,4.28
2016-12-06T08:44:57.886Z,4.44
2016-12-06T08:46:08.233Z,4.54
2016-12-06T08:47:18.256Z,4.58
2016-12-06T08:48:28.287Z,4.66
2016-12-06T08:49:38.301Z,4.79
2016-12-06T08:50:48.625Z,5.03
2016-12-06T08:51:58.328Z,5.08
2016-12-06T08:53:08.662Z,5.06
2016-12-06T08:54:19.000Z,5.08
2016-12-06T08:55:29.044Z,4.98
2016-12-06T08:56:39.374Z,4.95
2016-12-06T08:57:49.946Z,4.84
2016-12-06T08:59:00.272Z,4.88
2016-12-06T09:00:10.609Z,4.88
2016-12-06T09:01:20.957Z,4.79
2016-12-06T09:02:31.009Z,4.79
2016-12-06T09:03:41.029Z,4.68
2016-12-06T09:04:50.451Z,4.68
2016-12-06T09:06:00.803Z,4.68
2016-12-06T09:07:11.132Z,4.72
2016-12-06T09:08:20.840Z,4.87
2016-12-06T09:09:30.868Z,5.02
2016-12-06T09:10:40.578Z,4.98
2016-12-06T09:11:50.298Z,5.02
2016-12-06T09:13:00.344Z,5.08
2016-12-06T09:14:10.079Z,5.15
2016-12-06T09:15:20.435Z,5.23
2016-12-06T09:16:30.758Z,5.49
2016-12-06T09:17:41.095Z,5.88
2016-12-06T09:18:51.425Z,6.36
2016-12-06T09:20:01.481Z,6.52
2016-12-06T09:21:11.806Z,6.78
2016-12-06T09:22:21.835Z,6.95
2016-12-06T09:23:32.196Z,7.12
2016-12-06T09:24:42.535Z,7.22
2016-12-06T09:25:52.565Z,7.22
2016-12-06T09:27:02.608Z,7.23
2016-12-06T09:28:12.972Z,7.23
2016-12-06T09:29:23.016Z,7.13
2016-12-06T09:30:33.060Z,7.23
2016-12-06T09:31:43.405Z,7.26
2016-12-06T09:32:53.749Z,7.31
2016-12-06T09:34:04.088Z,7.47
2016-12-06T09:35:13.490Z,7.52
2016-12-06T09:36:23.533Z,7.58
2016-12-06T09:37:33.863Z,7.7
2016-12-06T09:38:43.889Z,7.74
2016-12-06T09:39:54.234Z,7.75
2016-12-06T09:41:04.619Z,7.71
2016-12-06T09:42:14.883Z,7.88
2016-12-06T09:43:25.232Z,7.86
2016-12-06T09:44:35.554Z,7.95
2016-12-06T09:45:45.328Z,7.95
2016-12-06T09:46:55.080Z,7.91
2016-12-06T09:48:05.099Z,7.92
2016-12-06T09:49:15.428Z,7.93
2016-12-06T09:50:24.518Z,7.92
2016-12-06T09:51:34.874Z,7.89
2016-12-06T09:52:45.219Z,7.71
2016-12-06T09:53:55.786Z,7.73
2016-12-06T09:55:05.834Z,7.78
2016-12-06T09:56:15.540Z,7.77
2016-12-06T09:57:25.548Z,7.98
2016-12-06T09:58:35.874Z,8.03
2016-12-06T09:59:46.213Z,8.14
2016-12-06T10:00:55.978Z,8.09
2016-12-06T10:02:06.322Z,8.13
2016-12-06T10:03:16.644Z,8.29
2016-12-06T10:04:26.969Z,8.31
2016-12-06T10:05:37.024Z,8.19
2016-12-06T10:06:46.729Z,8.04
2016-12-06T10:07:57.312Z,7.93
2016-12-06T10:09:07.336Z,7.8
2016-12-06T10:10:17.682Z,7.71
2016-12-06T10:11:27.395Z,7.77
2016-12-06T10:12:37.414Z,7.73
2016-12-06T10:13:47.436Z,7.67
2016-12-06T10:14:57.767Z,7.64
2016-12-06T10:16:08.267Z,7.64
2016-12-06T10:17:18.301Z,7.86
2016-12-06T10:18:27.724Z,7.91
2016-12-06T10:19:37.740Z,7.78
2016-12-06T10:20:47.778Z,7.7
2016-12-06T10:21:57.813Z,7.59
2016-12-06T10:23:08.182Z,7.61
2016-12-06T10:24:18.536Z,7.49
2016-12-06T10:25:28.571Z,7.58
2016-12-06T10:26:38.600Z,7.45
2016-12-06T10:27:48.968Z,7.31
2016-12-06T10:28:59.352Z,7.22
2016-12-06T10:30:09.149Z,7.15
2016-12-06T10:31:19.561Z,6.97
2016-12-06T10:32:29.603Z,7.04
2016-12-06T10:33:39.646Z,7
2016-12-06T10:34:49.701Z,7.04
2016-12-06T10:36:00.063Z,7.08
2016-12-06T10:37:10.097Z,6.98
2016-12-06T10:38:20.121Z,6.98
2016-12-06T10:39:30.464Z,6.8
2016-12-06T10:40:40.823Z,6.83
2016-12-06T10:41:50.850Z,6.88
2016-12-06T10:43:01.209Z,6.85
2016-12-06T10:44:10.683Z,6.82
2016-12-06T10:45:20.726Z,6.82
2016-12-06T10:46:30.444Z,6.76
2016-12-06T10:47:40.785Z,6.76
2016-12-06T10:48:50.177Z,6.75
2016-12-06T10:50:00.199Z,6.76
2016-12-06T10:51:09.616Z,6.88
2016-12-06T10:52:19.964Z,6.93
2016-12-06T10:53:30.275Z,7
2016-12-06T10:54:40.591Z,6.98
2016-12-06T10:55:50.899Z,6.97
2016-12-06T10:57:00.882Z,6.91
2016-12-06T10:58:10.563Z,6.97
2016-12-06T10:59:20.579Z,6.8
2016-12-06T11:00:30.612Z,6.72
2016-12-06T11:01:40.626Z,6.6
2016-12-06T11:02:51.037Z,6.62
2016-12-06T11:04:00.742Z,6.73
2016-12-06T11:05:11.062Z,6.64
2016-12-06T11:06:21.099Z,6.68
2016-12-06T11:07:31.116Z,6.58
2016-12-06T11:08:41.586Z,6.54
2016-12-06T11:09:51.893Z,6.54
2016-12-06T11:11:02.252Z,6.54
2016-12-06T11:12:12.581Z,6.7
2016-12-06T11:13:22.903Z,6.82
2016-12-06T11:14:33.230Z,6.7
2016-12-06T11:15:43.576Z,6.85
2016-12-06T11:16:53.597Z,6.75
2016-12-06T11:18:03.931Z,6.67
2016-12-06T11:19:13.975Z,6.68
2016-12-06T11:20:24.320Z,6.52
2016-12-06T11:21:34.340Z,6.39
2016-12-06T11:22:44.366Z,6.43
2016-12-06T11:23:54.691Z,6.33
2016-12-06T11:25:04.701Z,6.31
2016-12-06T11:26:14.422Z,6.37
2016-12-06T11:27:24.749Z,6.44
2016-12-06T11:28:35.091Z,6.76
2016-12-06T11:29:45.103Z,6.68
2016-12-06T11:30:55.159Z,6.95
2016-12-06T11:32:04.855Z,6.97
2016-12-06T11:33:14.548Z,7.26
2016-12-06T11:34:24.551Z,7.23
2016-12-06T11:35:34.569Z,7.33
2016-12-06T11:36:44.365Z,7.56
2016-12-06T11:37:54.726Z,7.58
2016-12-06T11:39:04.773Z,7.7
2016-12-06T11:40:15.092Z,7.44
2016-12-06T11:41:25.405Z,7.48
2016-12-06T11:42:35.454Z,7.45
2016-12-06T11:43:45.460Z,7.47
2016-12-06T11:44:55.455Z,7.51
2016-12-06T11:46:05.773Z,7.36
2016-12-06T11:47:15.787Z,7.27
2016-12-06T11:48:25.803Z,7.11
2016-12-06T11:49:35.555Z,7.27
2016-12-06T11:50:45.564Z,7.19
2016-12-06T11:51:55.874Z,7.15
2016-12-06T11:53:06.197Z,7.15
2016-12-06T11:54:16.225Z,7
2016-12-06T11:55:26.279Z,6.98
2016-12-06T11:56:36.279Z,6.78
2016-12-06T11:57:46.292Z,6.62
2016-12-06T11:58:56.622Z,6.58
2016-12-06T12:00:06.427Z,6.29
2016-12-06T12:01:16.768Z,6.28
2016-12-06T12:02:27.095Z,6.21
2016-12-06T12:03:37.437Z,6.26
2016-12-06T12:04:47.745Z,6.4
2016-12-06T12:05:58.085Z,6.46
2016-12-06T12:07:08.411Z,6.36
2016-12-06T12:08:18.754Z,6.29
2016-12-06T12:09:28.801Z,6.33
2016-12-06T12:10:38.821Z,6.28
2016-12-06T12:11:48.344Z,6.8
2016-12-06T12:12:58.668Z,6.54
2016-12-06T12:14:08.364Z,6.4
2016-12-06T12:15:18.137Z,6.25
2016-12-06T12:16:28.495Z,6.29
2016-12-06T12:17:38.789Z,6.09
2016-12-06T12:18:48.819Z,6
2016-12-06T12:19:59.223Z,5.85
2016-12-06T12:21:09.236Z,5.88
2016-12-06T12:22:19.559Z,5.89
2016-12-06T12:23:29.725Z,5.82
2016-12-06T12:24:39.417Z,5.78
2016-12-06T12:25:49.541Z,5.95
2016-12-06T12:26:59.877Z,5.92
2016-12-06T12:28:09.614Z,5.99
2016-12-06T12:29:19.624Z,6.09
2016-12-06T12:30:29.346Z,6.24
2016-12-06T12:31:39.666Z,6.72
2016-12-06T12:32:49.804Z,6.98
2016-12-06T12:33:59.816Z,6.85
2016-12-06T12:35:09.615Z,6.97
2016-12-06T12:36:19.940Z,7.01
2016-12-06T12:37:29.666Z,7.09
2016-12-06T12:38:40.001Z,7.39
2016-12-06T12:39:50.043Z,7.68
2016-12-06T12:41:00.412Z,8.04
2016-12-06T12:42:10.440Z,8.53
2016-12-06T12:43:20.167Z,8.8
2016-12-06T12:44:29.907Z,9.11
2016-12-06T12:45:40.278Z,9.26
2016-12-06T12:46:50.289Z,9.3
2016-12-06T12:48:00.633Z,9.29
2016-12-06T12:49:10.665Z,9.23
2016-12-06T12:50:21.005Z,8.97
2016-12-06T12:51:31.341Z,8.67
2016-12-06T12:52:41.362Z,8.44
2016-12-06T12:53:51.706Z,8.35
2016-12-06T12:55:01.796Z,8.09
2016-12-06T12:56:11.861Z,8.01
2016-12-06T12:57:21.234Z,7.88
2016-12-06T12:58:31.276Z,7.78
2016-12-06T12:59:41.366Z,7.7
2016-12-06T13:00:51.715Z,7.56
2016-12-06T13:02:01.403Z,7.44
2016-12-06T13:03:11.710Z,7.36
2016-12-06T13:04:21.718Z,7.33
2016-12-06T13:05:32.166Z,7.23
2016-12-06T13:06:42.173Z,7.15
2016-12-06T13:07:51.871Z,7.03
2016-12-06T13:09:01.903Z,7.01
2016-12-06T13:10:12.236Z,7.01
2016-12-06T13:11:22.580Z,6.98
2016-12-06T13:12:32.924Z,7.01
2016-12-06T13:13:42.934Z,6.88
2016-12-06T13:14:53.282Z,7
2016-12-06T13:16:02.692Z,6.91
2016-12-06T13:17:12.720Z,6.83
2016-12-06T13:18:23.109Z,6.85
2016-12-06T13:19:33.146Z,6.7
2016-12-06T13:20:42.840Z,6.75
2016-12-06T13:21:53.273Z,6.78
2016-12-06T13:23:03.325Z,6.8
2016-12-06T13:24:13.355Z,6.83
2016-12-06T13:25:23.414Z,6.93
2016-12-06T13:26:33.758Z,7
2016-12-06T13:27:43.158Z,7
2016-12-06T13:28:53.504Z,6.93
2016-12-06T13:30:03.546Z,6.98
2016-12-06T13:31:13.592Z,7.05
2016-12-06T13:32:23.965Z,7.09
2016-12-06T13:33:33.993Z,7.11
2016-12-06T13:34:44.367Z,7.09
2016-12-06T13:35:54.083Z,7.15
2016-12-06T13:37:04.112Z,7.13
2016-12-06T13:38:13.828Z,7.12
2016-12-06T13:39:23.871Z,7.19
2016-12-06T13:40:33.903Z,7.15
2016-12-06T13:41:43.967Z,7.11
2016-12-06T13:42:54.303Z,7.09
2016-12-06T13:44:04.330Z,7.04
2016-12-06T13:45:14.347Z,7.11
2016-12-06T13:46:24.069Z,7.03
2016-12-06T13:47:34.099Z,6.95
2016-12-06T13:48:44.453Z,7.05
2016-12-06T13:49:54.822Z,6.98
2016-12-06T13:51:05.175Z,7.01
2016-12-06T13:52:14.585Z,6.8
2016-12-06T13:53:24.924Z,6.79
2016-12-06T13:54:35.276Z,6.79
2016-12-06T13:55:45.663Z,6.68
2016-12-06T13:56:55.921Z,6.58
2016-12-06T13:58:06.285Z,6.57
2016-12-06T13:59:16.319Z,6.52
2016-12-06T14:00:26.652Z,6.36
2016-12-06T14:01:36.992Z,6.51
2016-12-06T14:02:47.370Z,6.31
2016-12-06T14:03:57.723Z,6.2
2016-12-06T14:05:07.433Z,6.25
2016-12-06T14:06:17.469Z,6.2
2016-12-06T14:07:27.511Z,6.14
2016-12-06T14:08:37.897Z,6
2016-12-06T14:09:47.945Z,6.02
2016-12-06T14:10:58.305Z,5.99
2016-12-06T14:12:08.340Z,5.89
2016-12-06T14:13:18.367Z,5.89
2016-12-06T14:14:28.707Z,5.78
2016-12-06T14:15:38.105Z,5.75
2016-12-06T14:16:48.447Z,5.64
2016-12-06T14:17:58.160Z,5.59
2016-12-06T14:19:08.495Z,5.64
2016-12-06T14:20:18.814Z,5.48
2016-12-06T14:21:29.155Z,5.42
2016-12-06T14:22:38.550Z,5.31
2016-12-06T14:23:48.607Z,5.41
2016-12-06T14:24:58.934Z,5.31
2016-12-06T14:26:09.043Z,5.3
2016-12-06T14:27:19.390Z,5.24
2016-12-06T14:28:29.116Z,5.16
2016-12-06T14:29:39.140Z,5.12
2016-12-06T14:30:49.472Z,5.09
2016-12-06T14:31:59.492Z,5.09
2016-12-06T14:33:09.835Z,5.05
2016-12-06T14:34:20.170Z,4.98
2016-12-06T14:35:30.490Z,4.88
2016-12-06T14:36:40.566Z,4.85
2016-12-06T14:37:50.549Z,4.74
2016-12-06T14:39:00.615Z,4.69
2016-12-06T14:40:10.953Z,4.72
2016-12-06T14:41:20.984Z,4.68
2016-12-06T14:42:31.010Z,4.65
2016-12-06T14:43:41.030Z,4.57
2016-12-06T14:44:51.393Z,4.65
2016-12-06T14:46:01.762Z,4.6
2016-12-06T14:47:11.795Z,4.53
2016-12-06T14:48:21.839Z,4.54
2016-12-06T14:49:31.595Z,4.4
2016-12-06T14:50:41.338Z,4.32
2016-12-06T14:51:51.363Z,4.33
2016-12-06T14:53:01.712Z,4.46
2016-12-06T14:54:11.758Z,4.35
2016-12-06T14:55:22.083Z,4.33
2016-12-06T14:56:32.150Z,4.36
2016-12-06T14:57:41.875Z,4.33
2016-12-06T14:58:52.220Z,4.26
2016-12-06T15:00:02.250Z,4.28
2016-12-06T15:01:12.320Z,4.2
2016-12-06T15:02:22.669Z,4.15
2016-12-06T15:03:33.022Z,4.28
2016-12-06T15:04:43.056Z,4.12
2016-12-06T15:05:53.077Z,4.15
2016-12-06T15:07:03.146Z,4.17
2016-12-06T15:08:13.186Z,4.17
2016-12-06T15:09:23.529Z,4.15
2016-12-06T15:10:33.279Z,4.07
2016-12-06T15:11:43.659Z,4.1
2016-12-06T15:12:53.682Z,4.08
2016-12-06T15:14:04.039Z,4.03
2016-12-06T15:15:14.089Z,3.99
2016-12-06T15:16:24.167Z,4.03
2016-12-06T15:17:34.172Z,4.04
2016-12-06T15:18:44.523Z,4
2016-12-06T15:19:54.855Z,4.02
2016-12-06T15:21:05.208Z,4.03
2016-12-06T15:22:15.563Z,3.96
2016-12-06T15:23:25.581Z,3.94
2016-12-06T15:24:35.624Z,3.93
2016-12-06T15:25:45.995Z,3.96
2016-12-06T15:26:56.026Z,3.94
2016-12-06T15:28:06.091Z,3.96
2016-12-06T15:29:16.508Z,3.82
2016-12-06T15:30:25.918Z,3.92
2016-12-06T15:31:36.001Z,3.89
2016-12-06T15:32:46.038Z,3.84
2016-12-06T15:33:55.739Z,3.78
2016-12-06T15:35:06.066Z,3.78
2016-12-06T15:36:16.100Z,3.79
2016-12-06T15:37:26.133Z,3.86
2016-12-06T15:38:36.239Z,3.86
2016-12-06T15:39:46.280Z,3.82
2016-12-06T15:40:56.628Z,3.86
2016-12-06T15:42:07.225Z,3.81
2016-12-06T15:43:17.261Z,3.84
2016-12-06T15:44:27.621Z,3.84
2016-12-06T15:45:37.364Z,3.81
2016-12-06T15:46:47.715Z,3.89
2016-12-06T15:47:57.418Z,3.81
2016-12-06T15:49:07.740Z,3.79
2016-12-06T15:50:17.773Z,3.82
2016-12-06T15:51:27.804Z,3.85
2016-12-06T15:52:38.381Z,3.81
2016-12-06T15:53:48.731Z,3.76
2016-12-06T15:54:58.785Z,3.72
2016-12-06T15:56:08.817Z,3.69
2016-12-06T15:57:18.847Z,3.71
2016-12-06T15:58:28.557Z,3.78
2016-12-06T15:59:38.603Z,3.72
2016-12-06T16:00:48.948Z,3.81
2016-12-06T16:01:58.985Z,3.78
2016-12-06T16:03:09.036Z,3.71
2016-12-06T16:04:19.368Z,3.72
2016-12-06T16:05:29.404Z,3.72
2016-12-06T16:06:39.437Z,3.66